createdAt,value
2022-08-23T00:02:01.684Z,24.16
2022-08-23T00:04:35.178Z,24.12
2022-08-23T00:07:08.661Z,23.98
2022-08-23T00:09:39.898Z,24.02
2022-08-23T00:12:15.223Z,23.92
2022-08-23T00:14:48.581Z,23.92
2022-08-23T00:17:33.897Z,23.87
2022-08-23T00:20:04.683Z,23.93
2022-08-23T00:22:34.042Z,23.89
2022-08-23T00:25:05.304Z,23.92
2022-08-23T00:27:35.380Z,23.92
2022-08-23T00:30:07.558Z,23.98
2022-08-23T00:32:39.547Z,24.04
2022-08-23T00:35:12.721Z,24.03
2022-08-23T00:38:31.913Z,24.09
2022-08-23T00:40:45.255Z,24.06
2022-08-23T00:43:35.380Z,23.89
2022-08-23T00:46:32.997Z,23.98
2022-08-23T00:49:06.030Z,23.91
2022-08-23T00:51:52.585Z,23.79
2022-08-23T00:54:23.613Z,23.73
2022-08-23T00:56:54.804Z,23.73
2022-08-23T00:59:24.548Z,23.63
2022-08-23T01:01:54.517Z,23.64
2022-08-23T01:04:23.602Z,23.55
2022-08-23T01:07:01.215Z,23.66
2022-08-23T01:09:30.678Z,23.58
2022-08-23T01:12:08.295Z,23.62
2022-08-23T01:14:42.843Z,23.60
2022-08-23T01:17:16.938Z,23.58
2022-08-23T01:20:03.330Z,23.75
2022-08-23T01:22:42.021Z,23.68
2022-08-23T01:25:18.042Z,23.67
2022-08-23T01:27:47.389Z,23.65
2022-08-23T01:30:21.255Z,23.53
2022-08-23T01:32:55.540Z,23.67
2022-08-23T01:35:32.828Z,23.68
2022-08-23T01:38:02.466Z,23.56
2022-08-23T01:40:33.845Z,23.57
2022-08-23T01:43:03.604Z,23.98
2022-08-23T01:45:33.841Z,23.61
2022-08-23T01:48:04.840Z,23.54
2022-08-23T01:50:34.664Z,23.55
2022-08-23T01:53:04.418Z,23.55
2022-08-23T01:55:35.935Z,23.55
2022-08-23T01:58:07.078Z,23.56
2022-08-23T02:00:39.414Z,23.55
2022-08-23T02:03:09.667Z,23.50
2022-08-23T02:05:39.213Z,23.55
2022-08-23T02:08:29.490Z,23.53
2022-08-23T02:11:02.027Z,23.57
2022-08-23T02:13:31.566Z,23.49
2022-08-23T02:16:01.244Z,23.47
2022-08-23T02:18:31.812Z,23.50
2022-08-23T02:21:00.920Z,23.43
2022-08-23T02:23:30.537Z,23.40
2022-08-23T02:26:01.360Z,23.48
2022-08-23T02:28:31.082Z,24.06
2022-08-23T02:31:00.132Z,23.44
2022-08-23T02:33:29.664Z,23.31
2022-08-23T02:35:58.596Z,23.33
2022-08-23T02:38:28.069Z,23.39
2022-08-23T02:41:00.977Z,23.50
2022-08-23T02:43:40.914Z,23.50
2022-08-23T02:46:11.352Z,23.39
2022-08-23T02:48:40.888Z,23.42
2022-08-23T02:51:11.069Z,23.45
2022-08-23T02:53:41.753Z,23.37
2022-08-23T02:56:21.653Z,23.47
2022-08-23T02:58:54.950Z,23.45
2022-08-23T03:01:28.806Z,23.35
2022-08-23T03:04:02.640Z,23.25
2022-08-23T03:06:33.036Z,23.21
2022-08-23T03:09:03.751Z,23.24
2022-08-23T03:11:33.138Z,23.28
2022-08-23T03:14:04.560Z,23.32
2022-08-23T03:16:34.182Z,23.20
2022-08-23T03:19:04.124Z,23.20
2022-08-23T03:21:33.278Z,23.18
2022-08-23T03:24:06.855Z,23.21
2022-08-23T03:26:39.100Z,23.11
2022-08-23T03:29:10.206Z,23.24
2022-08-23T03:31:56.681Z,23.25
2022-08-23T03:34:27.501Z,23.25
2022-08-23T03:36:57.654Z,23.34
2022-08-23T03:39:27.484Z,23.25
2022-08-23T03:41:59.029Z,23.24
2022-08-23T03:44:33.806Z,23.37
2022-08-23T03:47:03.721Z,23.46
2022-08-23T03:49:35.079Z,23.54
2022-08-23T03:52:06.020Z,23.54
2022-08-23T03:54:37.317Z,23.45
2022-08-23T03:57:10.829Z,23.58
2022-08-23T03:59:42.791Z,23.52
2022-08-23T04:02:14.216Z,23.64
2022-08-23T04:04:44.221Z,23.55
2022-08-23T04:07:25.962Z,23.80
2022-08-23T04:09:59.255Z,23.61
2022-08-23T04:12:33.634Z,23.67
2022-08-23T04:15:04.615Z,23.63
2022-08-23T04:17:45.127Z,23.68
2022-08-23T04:20:14.830Z,23.61
2022-08-23T04:22:59.098Z,23.65
2022-08-23T04:25:34.254Z,23.74
2022-08-23T04:28:07.389Z,23.64
2022-08-23T04:30:38.432Z,23.71
2022-08-23T04:33:09.914Z,23.72
2022-08-23T04:35:42.655Z,23.71
2022-08-23T04:38:24.589Z,23.65
2022-08-23T04:41:20.105Z,23.62
2022-08-23T04:43:50.755Z,23.98
2022-08-23T04:46:23.832Z,24.06
2022-08-23T04:48:54.358Z,24.13
2022-08-23T04:51:24.755Z,24.13
2022-08-23T04:53:55.713Z,23.97
2022-08-23T04:56:35.236Z,24.08
2022-08-23T04:59:06.753Z,24.36
2022-08-23T05:01:37.431Z,24.35
2022-08-23T05:04:08.275Z,24.38
2022-08-23T05:06:41.253Z,24.45
2022-08-23T05:09:11.472Z,24.57
2022-08-23T05:11:41.145Z,24.43
2022-08-23T05:14:11.154Z,24.39
2022-08-23T05:16:41.996Z,24.53
2022-08-23T05:19:13.935Z,24.42
2022-08-23T05:21:46.961Z,24.51
2022-08-23T05:24:18.832Z,24.59
2022-08-23T05:26:49.480Z,24.58
2022-08-23T05:29:21.789Z,24.78
2022-08-23T05:31:57.361Z,24.98
2022-08-23T05:34:28.775Z,24.96
2022-08-23T05:37:06.182Z,24.93
2022-08-23T05:39:42.698Z,25.58
2022-08-23T05:42:15.860Z,25.18
2022-08-23T05:44:47.480Z,25.00
2022-08-23T05:47:24.785Z,25.04
2022-08-23T05:50:22.710Z,25.05
2022-08-23T05:52:52.932Z,25.06
2022-08-23T05:55:34.600Z,25.15
2022-08-23T05:58:21.278Z,25.28
2022-08-23T06:00:51.320Z,25.36
2022-08-23T06:03:22.396Z,25.48
2022-08-23T06:05:59.208Z,25.73
2022-08-23T06:08:28.785Z,25.64
2022-08-23T06:11:04.389Z,25.75
2022-08-23T06:13:43.325Z,25.96
2022-08-23T06:16:23.041Z,26.12
2022-08-23T06:18:57.858Z,26.27
2022-08-23T06:21:46.580Z,26.47
2022-08-23T06:24:16.881Z,26.57
2022-08-23T06:27:00.495Z,26.60
2022-08-23T06:29:30.435Z,26.94
2022-08-23T06:32:19.959Z,27.38
2022-08-23T06:35:37.609Z,27.39
2022-08-23T06:38:08.201Z,27.78
2022-08-23T06:41:01.928Z,28.48
2022-08-23T06:43:43.042Z,28.48
2022-08-23T06:46:33.541Z,29.02
2022-08-23T06:49:06.211Z,29.17
2022-08-23T06:51:41.521Z,29.36
2022-08-23T06:54:34.591Z,29.34
2022-08-23T06:57:34.973Z,29.20
2022-08-23T07:00:28.538Z,29.67
2022-08-23T07:03:15.226Z,29.81
2022-08-23T07:06:03.361Z,30.18
2022-08-23T07:08:36.660Z,30.38
2022-08-23T07:11:07.069Z,30.39
2022-08-23T07:13:36.782Z,30.48
2022-08-23T07:16:06.770Z,31.22
2022-08-23T07:18:37.092Z,31.57
2022-08-23T07:21:08.073Z,31.63
2022-08-23T07:23:46.428Z,31.76
2022-08-23T07:26:19.263Z,32.05
2022-08-23T07:28:49.821Z,32.77
2022-08-23T07:31:21.899Z,33.18
2022-08-23T07:33:53.298Z,32.81
2022-08-23T07:36:27.971Z,33.36
2022-08-23T07:39:00.531Z,34.12
2022-08-23T07:41:33.054Z,34.14
2022-08-23T07:44:05.179Z,34.38
2022-08-23T07:46:35.960Z,34.89
2022-08-23T07:49:07.793Z,33.77
2022-08-23T07:51:42.837Z,34.00
2022-08-23T07:54:19.689Z,34.31
2022-08-23T07:57:01.461Z,34.04
2022-08-23T07:59:50.319Z,33.86
2022-08-23T08:02:43.988Z,34.10
2022-08-23T08:05:22.135Z,34.16
2022-08-23T08:07:53.577Z,33.83
2022-08-23T08:10:25.551Z,33.72
2022-08-23T08:12:56.665Z,33.67
2022-08-23T08:15:27.724Z,33.53
2022-08-23T08:18:07.782Z,33.68
2022-08-23T08:20:57.270Z,33.60
2022-08-23T08:23:33.347Z,33.68
2022-08-23T08:26:30.275Z,34.32
2022-08-23T08:29:00.954Z,34.80
2022-08-23T08:31:38.585Z,35.75
2022-08-23T08:34:12.583Z,36.03
2022-08-23T08:36:45.647Z,36.68
2022-08-23T08:39:23.288Z,37.22
2022-08-23T08:42:20.721Z,38.19
2022-08-23T08:44:55.688Z,37.25
2022-08-23T08:47:36.407Z,37.45
2022-08-23T08:50:14.517Z,37.42
2022-08-23T08:52:49.817Z,37.38
2022-08-23T08:55:36.388Z,37.78
2022-08-23T08:58:14.597Z,38.40
2022-08-23T09:00:49.166Z,38.49
2022-08-23T09:03:23.004Z,38.52
2022-08-23T09:05:59.177Z,39.37
2022-08-23T09:08:48.457Z,39.94
2022-08-23T09:11:30.583Z,40.28
2022-08-23T09:14:23.709Z,40.40
2022-08-23T09:16:58.779Z,40.25
2022-08-23T09:19:30.844Z,40.68
2022-08-23T09:22:03.798Z,40.93
2022-08-23T09:24:35.914Z,40.31
2022-08-23T09:27:12.603Z,39.85
2022-08-23T09:29:57.427Z,40.12
2022-08-23T09:32:34.091Z,39.12
2022-08-23T09:35:17.470Z,38.71
2022-08-23T09:38:00.797Z,38.13
2022-08-23T09:40:35.716Z,38.16
2022-08-23T09:43:19.599Z,39.26
2022-08-23T09:46:04.660Z,39.83
2022-08-23T09:48:46.565Z,39.31
2022-08-23T09:51:27.859Z,38.91
2022-08-23T09:54:08.400Z,38.19
2022-08-23T09:56:40.778Z,37.01
2022-08-23T09:59:29.515Z,36.58
2022-08-23T10:02:14.537Z,35.54
2022-08-23T10:05:00.659Z,35.71
2022-08-23T10:07:38.566Z,35.43
2022-08-23T10:10:24.188Z,35.34
2022-08-23T10:12:59.233Z,35.59
2022-08-23T10:15:49.600Z,35.98
2022-08-23T10:18:34.938Z,36.40
2022-08-23T10:21:23.773Z,36.50
2022-08-23T10:24:16.993Z,37.35
2022-08-23T10:27:01.496Z,37.50
2022-08-23T10:29:38.820Z,38.32
2022-08-23T10:32:22.027Z,38.79
2022-08-23T10:35:11.404Z,39.26
2022-08-23T10:37:53.409Z,39.47
2022-08-23T10:40:29.799Z,39.46
2022-08-23T10:43:14.998Z,39.31
2022-08-23T10:45:47.937Z,38.63
2022-08-23T10:48:33.787Z,39.16
2022-08-23T10:51:10.924Z,40.18
2022-08-23T10:53:48.014Z,40.86
2022-08-23T10:56:21.213Z,41.08
2022-08-23T10:59:00.279Z,41.08
2022-08-23T11:01:47.687Z,41.12
2022-08-23T11:04:27.048Z,40.02
2022-08-23T11:07:24.073Z,39.06
2022-08-23T11:09:59.561Z,37.73
2022-08-23T11:12:36.945Z,37.13
2022-08-23T11:15:15.435Z,37.18
2022-08-23T11:18:00.983Z,36.87
2022-08-23T11:21:02.507Z,36.40
2022-08-23T11:23:49.464Z,35.41
2022-08-23T11:27:08.964Z,35.25
2022-08-23T11:29:44.392Z,34.35
2022-08-23T11:32:42.951Z,34.20
2022-08-23T11:35:43.458Z,34.10
2022-08-23T11:38:22.417Z,34.00
2022-08-23T11:41:12.752Z,35.56
2022-08-23T11:43:45.524Z,36.74
2022-08-23T11:46:35.101Z,38.52
2022-08-23T11:49:28.554Z,40.18
2022-08-23T11:52:07.463Z,39.10
2022-08-23T11:54:47.963Z,39.42
2022-08-23T11:57:36.971Z,39.97
2022-08-23T12:00:19.179Z,39.79
2022-08-23T12:03:03.392Z,39.55
2022-08-23T12:06:14.474Z,39.30
2022-08-23T12:08:55.826Z,38.71
2022-08-23T12:11:26.914Z,39.02
2022-08-23T12:14:02.809Z,39.64
2022-08-23T12:16:38.068Z,39.11
2022-08-23T12:19:30.319Z,38.27
2022-08-23T12:22:07.026Z,37.97
2022-08-23T12:24:44.778Z,38.48
2022-08-23T12:27:28.159Z,37.94
2022-08-23T12:30:07.050Z,37.31
2022-08-23T12:32:44.312Z,36.78
2022-08-23T12:35:33.219Z,36.36
2022-08-23T12:38:09.103Z,35.67
2022-08-23T12:40:42.510Z,35.66
2022-08-23T12:43:22.499Z,35.35
2022-08-23T12:45:57.503Z,35.58
2022-08-23T12:48:29.819Z,35.18
2022-08-23T12:51:03.539Z,35.05
2022-08-23T12:53:38.550Z,34.59
2022-08-23T12:56:26.791Z,34.91
2022-08-23T12:59:05.559Z,34.77
2022-08-23T13:01:38.764Z,34.84
2022-08-23T13:04:11.239Z,34.62
2022-08-23T13:06:46.103Z,34.44
2022-08-23T13:09:21.170Z,34.20
2022-08-23T13:11:52.596Z,34.41
2022-08-23T13:14:31.057Z,34.73
2022-08-23T13:17:15.341Z,34.92
2022-08-23T13:19:45.631Z,34.51
2022-08-23T13:22:22.211Z,34.10
2022-08-23T13:25:27.497Z,34.55
2022-08-23T13:27:57.726Z,34.70
2022-08-23T13:30:30.174Z,34.74
2022-08-23T13:33:24.482Z,35.15
2022-08-23T13:36:13.033Z,34.82
2022-08-23T13:38:44.148Z,34.12
2022-08-23T13:41:28.003Z,34.16
2022-08-23T13:44:00.484Z,34.08
2022-08-23T13:46:37.292Z,34.10
2022-08-23T13:49:14.730Z,34.27
2022-08-23T13:51:47.093Z,34.50
2022-08-23T13:54:17.975Z,34.47
2022-08-23T13:56:53.331Z,34.39
2022-08-23T13:59:31.750Z,34.05
2022-08-23T14:02:03.216Z,33.64
2022-08-23T14:04:34.360Z,33.50
2022-08-23T14:07:06.915Z,33.47
2022-08-23T14:09:36.992Z,33.33
2022-08-23T14:12:09.641Z,33.40
2022-08-23T14:14:40.186Z,33.30
2022-08-23T14:17:12.844Z,33.28
2022-08-23T14:22:37.862Z,33.31
2022-08-23T14:25:08.269Z,33.29
2022-08-23T14:27:41.022Z,33.24
2022-08-23T14:30:13.786Z,33.27
2022-08-23T14:32:43.420Z,33.13
2022-08-23T14:35:14.910Z,33.06
2022-08-23T14:40:38.213Z,33.05
2022-08-23T14:43:07.733Z,32.96
2022-08-23T14:45:37.012Z,32.91
2022-08-23T14:48:07.422Z,32.88
2022-08-23T14:50:41.184Z,32.88
2022-08-23T14:53:12.207Z,32.65
2022-08-23T14:55:42.343Z,32.50
2022-08-23T14:58:12.988Z,32.40
2022-08-23T15:00:43.030Z,32.24
2022-08-23T15:03:14.556Z,32.13
2022-08-23T15:05:45.946Z,32.10
2022-08-23T15:08:15.827Z,31.95
2022-08-23T15:12:56.506Z,31.83
2022-08-23T15:13:55.562Z,31.87
2022-08-23T15:16:26.096Z,31.75
2022-08-23T15:18:57.660Z,31.81
2022-08-23T15:21:29.327Z,31.73
2022-08-23T15:23:59.213Z,31.60
2022-08-23T15:26:31.345Z,31.55
2022-08-23T15:29:01.569Z,31.49
2022-08-23T15:31:31.171Z,31.47
2022-08-23T15:34:01.077Z,31.41
2022-08-23T15:36:36.824Z,31.39
2022-08-23T15:39:07.298Z,31.30
2022-08-23T15:41:37.173Z,31.34
2022-08-23T15:44:07.342Z,31.21
2022-08-23T15:46:39.128Z,31.23
2022-08-23T15:49:15.717Z,31.21
2022-08-23T15:51:47.055Z,31.06
2022-08-23T15:54:17.448Z,30.96
2022-08-23T15:56:53.020Z,31.03
2022-08-23T15:59:22.915Z,30.82
2022-08-23T16:01:52.428Z,30.71
2022-08-23T16:04:22.487Z,30.70
2022-08-23T16:06:54.834Z,30.76
2022-08-23T16:09:28.517Z,30.63
2022-08-23T16:12:00.328Z,30.63
2022-08-23T16:14:32.820Z,30.53
2022-08-23T16:17:02.749Z,30.47
2022-08-23T16:19:35.133Z,30.52
2022-08-23T16:22:09.008Z,30.52
2022-08-23T16:24:41.273Z,30.33
2022-08-23T16:27:12.185Z,30.29
2022-08-23T16:29:42.701Z,30.16
2022-08-23T16:32:12.974Z,30.10
2022-08-23T16:34:46.980Z,30.05
2022-08-23T16:37:21.040Z,29.99
2022-08-23T16:39:50.949Z,29.84
2022-08-23T16:42:21.413Z,29.82
2022-08-23T16:44:51.043Z,29.80
2022-08-23T16:47:21.341Z,29.75
2022-08-23T16:49:51.072Z,29.76
2022-08-23T16:52:24.821Z,29.74
2022-08-23T16:55:06.994Z,29.61
2022-08-23T16:57:45.161Z,29.68
2022-08-23T17:00:19.211Z,29.61
2022-08-23T17:02:50.842Z,29.57
2022-08-23T17:05:24.311Z,29.53
2022-08-23T17:07:56.713Z,29.64
2022-08-23T17:10:28.094Z,29.48
2022-08-23T17:12:59.841Z,29.57
2022-08-23T17:15:33.024Z,29.57
2022-08-23T17:18:03.013Z,29.48
2022-08-23T17:20:36.800Z,29.54
2022-08-23T17:23:08.555Z,29.49
2022-08-23T17:25:38.874Z,29.38
2022-08-23T17:28:11.069Z,29.35
2022-08-23T17:30:42.038Z,29.38
2022-08-23T17:33:12.131Z,29.34
2022-08-23T17:35:42.663Z,29.35
2022-08-23T17:38:13.966Z,29.25
2022-08-23T17:40:44.132Z,29.20
2022-08-23T17:43:14.022Z,29.15
2022-08-23T17:45:46.794Z,29.15
2022-08-23T17:48:17.778Z,29.14
2022-08-23T17:50:48.193Z,29.15
2022-08-23T17:53:22.059Z,29.09
2022-08-23T17:55:51.669Z,28.97
2022-08-23T17:58:22.358Z,28.97
2022-08-23T18:00:54.882Z,28.93
2022-08-23T18:03:27.024Z,28.86
2022-08-23T18:05:57.684Z,28.78
2022-08-23T18:08:29.118Z,28.85
2022-08-23T18:10:59.518Z,28.78
2022-08-23T18:13:29.015Z,28.73
2022-08-23T18:15:59.332Z,28.76
2022-08-23T18:18:30.488Z,28.69
2022-08-23T18:20:59.925Z,28.63
2022-08-23T18:23:31.798Z,28.72
2022-08-23T18:26:07.314Z,28.69
2022-08-23T18:28:36.879Z,28.67
2022-08-23T18:31:07.942Z,28.61
2022-08-23T18:33:46.774Z,28.61
2022-08-23T18:36:17.570Z,28.58
2022-08-23T18:38:48.795Z,28.59
2022-08-23T18:41:18.012Z,29.17
2022-08-23T18:43:48.377Z,28.50
2022-08-23T18:46:18.611Z,28.37
2022-08-23T18:48:53.485Z,28.37
2022-08-23T18:51:23.856Z,28.25
2022-08-23T18:53:54.824Z,28.32
2022-08-23T18:56:25.909Z,28.26
2022-08-23T18:58:55.435Z,28.29
2022-08-23T19:01:30.357Z,28.26
2022-08-23T19:04:04.955Z,28.26
2022-08-23T19:06:34.294Z,28.12
2022-08-23T19:09:06.227Z,28.09
2022-08-23T19:11:37.507Z,27.99
2022-08-23T19:14:11.080Z,28.04
2022-08-23T19:16:47.310Z,28.13
2022-08-23T19:19:18.999Z,28.12
2022-08-23T19:21:49.684Z,28.23
2022-08-23T19:24:21.044Z,28.28
2022-08-23T19:27:00.042Z,28.29
2022-08-23T19:29:30.148Z,28.22
2022-08-23T19:31:59.620Z,28.22
2022-08-23T19:34:30.538Z,28.21
2022-08-23T19:37:01.612Z,28.17
2022-08-23T19:39:32.747Z,28.14
2022-08-23T19:42:03.066Z,28.09
2022-08-23T19:44:34.960Z,28.01
2022-08-23T19:47:08.103Z,27.95
2022-08-23T19:49:50.259Z,27.99
2022-08-23T19:52:20.140Z,27.98
2022-08-23T19:54:51.143Z,27.94
2022-08-23T19:57:31.456Z,28.05
2022-08-23T20:00:08.406Z,27.98
2022-08-23T20:02:38.876Z,27.85
2022-08-23T20:05:08.898Z,27.89
2022-08-23T20:07:40.083Z,27.92
2022-08-23T20:10:13.288Z,28.46
2022-08-23T20:12:44.099Z,28.05
2022-08-23T20:15:14.880Z,27.93
2022-08-23T20:17:45.092Z,27.81
2022-08-23T20:20:15.178Z,27.71
2022-08-23T20:23:02.203Z,27.61
2022-08-23T20:25:34.929Z,27.53
2022-08-23T20:28:08.631Z,27.39
2022-08-23T20:30:38.947Z,27.43
2022-08-23T20:33:11.923Z,27.39
2022-08-23T20:35:44.023Z,27.30
2022-08-23T20:38:22.370Z,27.26
2022-08-23T20:41:05.016Z,27.26
2022-08-23T20:43:39.294Z,27.22
2022-08-23T20:46:12.901Z,27.69
2022-08-23T20:48:42.867Z,27.21
2022-08-23T20:51:12.793Z,27.05
2022-08-23T20:53:42.616Z,27.12
2022-08-23T20:56:13.856Z,27.20
2022-08-23T20:58:43.199Z,27.23
2022-08-23T21:01:14.389Z,27.27
2022-08-23T21:03:48.866Z,27.81
2022-08-23T21:06:20.900Z,27.25
2022-08-23T21:08:56.208Z,27.20
2022-08-23T21:11:29.257Z,27.28
2022-08-23T21:13:59.636Z,27.22
2022-08-23T21:16:29.796Z,27.23
2022-08-23T21:19:04.119Z,27.11
2022-08-23T21:21:35.561Z,27.10
2022-08-23T21:24:06.214Z,27.07
2022-08-23T21:26:37.851Z,27.12
2022-08-23T21:29:09.191Z,26.99
2022-08-23T21:31:39.160Z,27.56
2022-08-23T21:34:10.684Z,27.10
2022-08-23T21:36:44.090Z,27.13
2022-08-23T21:39:14.663Z,27.05
2022-08-23T21:41:51.489Z,27.01
2022-08-23T21:44:22.646Z,27.01
2022-08-23T21:46:53.658Z,26.96
2022-08-23T21:49:23.569Z,26.84
2022-08-23T21:51:54.551Z,26.79
2022-08-23T21:54:24.939Z,26.82
2022-08-23T21:56:55.703Z,26.82
2022-08-23T21:59:26.311Z,26.71
2022-08-23T22:01:55.413Z,26.73
2022-08-23T22:04:25.286Z,26.69
2022-08-23T22:06:56.053Z,26.65
2022-08-23T22:09:31.172Z,26.65
2022-08-23T22:12:02.371Z,26.64
2022-08-23T22:14:33.357Z,26.61
2022-08-23T22:17:03.423Z,26.52
2022-08-23T22:19:34.064Z,26.47
2022-08-23T22:22:03.604Z,26.55
2022-08-23T22:24:34.828Z,26.56
2022-08-23T22:27:06.046Z,26.60
2022-08-23T22:29:36.027Z,26.46
2022-08-23T22:32:06.220Z,26.50
2022-08-23T22:34:36.728Z,26.52
2022-08-23T22:37:06.598Z,26.47
2022-08-23T22:39:36.756Z,26.45
2022-08-23T22:42:09.921Z,26.43
2022-08-23T22:44:41.568Z,26.51
2022-08-23T22:47:13.093Z,26.43
2022-08-23T22:49:42.579Z,26.46
2022-08-23T22:52:14.031Z,26.42
2022-08-23T22:54:43.536Z,26.41
2022-08-23T22:57:14.561Z,26.40
2022-08-23T22:59:44.286Z,26.41
2022-08-23T23:02:13.999Z,26.32
2022-08-23T23:04:45.587Z,26.43
2022-08-23T23:07:36.098Z,26.33
2022-08-23T23:10:06.214Z,26.41
2022-08-23T23:12:36.882Z,26.35
2022-08-23T23:15:06.439Z,26.41
2022-08-23T23:17:38.683Z,26.42
2022-08-23T23:20:28.439Z,26.42
2022-08-23T23:22:58.046Z,26.35
2022-08-23T23:25:27.472Z,26.33
2022-08-23T23:27:59.113Z,26.34
2022-08-23T23:30:31.994Z,26.28
2022-08-23T23:33:02.013Z,26.18
2022-08-23T23:35:31.717Z,26.27
2022-08-23T23:38:02.793Z,26.23
2022-08-23T23:40:32.209Z,26.17
2022-08-23T23:43:03.129Z,26.15
2022-08-23T23:45:32.690Z,26.08
2022-08-23T23:48:02.109Z,26.12
2022-08-23T23:50:32.164Z,26.03
2022-08-23T23:53:01.557Z,26.15
2022-08-23T23:55:30.680Z,26.10
2022-08-23T23:57:59.680Z,26.21
